sensor_id;sensor_type;location;lat;lon;timestamp;P1;durP1;ratioP1;P2;durP2;ratioP2
51184;SDS011;37248;59.350;18.050;2023-02-15T00:01:16;5.93;;;2.27;;
51184;SDS011;37248;59.350;18.050;2023-02-15T00:03:42;6.37;;;2.60;;
51184;SDS011;37248;59.350;18.050;2023-02-15T00:06:07;4.47;;;2.08;;
51184;SDS011;37248;59.350;18.050;2023-02-15T00:08:32;5.10;;;2.00;;
51184;SDS011;37248;59.350;18.050;2023-02-15T00:11:04;9.00;;;2.00;;
51184;SDS011;37248;59.350;18.050;2023-02-15T00:13:30;4.07;;;1.83;;
51184;SDS011;37248;59.350;18.050;2023-02-15T00:15:59;4.60;;;2.10;;
51184;SDS011;37248;59.350;18.050;2023-02-15T00:18:25;6.07;;;2.15;;
51184;SDS011;37248;59.350;18.050;2023-02-15T00:20:50;7.00;;;2.27;;
51184;SDS011;37248;59.350;18.050;2023-02-15T00:23:15;5.10;;;1.87;;
51184;SDS011;37248;59.350;18.050;2023-02-15T00:25:40;4.50;;;2.10;;
51184;SDS011;37248;59.350;18.050;2023-02-15T00:28:05;3.83;;;1.73;;
51184;SDS011;37248;59.350;18.050;2023-02-15T00:30:31;5.33;;;1.93;;
51184;SDS011;37248;59.350;18.050;2023-02-15T00:32:56;5.70;;;1.67;;
51184;SDS011;37248;59.350;18.050;2023-02-15T00:35:21;4.60;;;2.10;;
51184;SDS011;37248;59.350;18.050;2023-02-15T00:37:46;4.80;;;1.90;;
51184;SDS011;37248;59.350;18.050;2023-02-15T00:40:12;4.53;;;2.10;;
51184;SDS011;37248;59.350;18.050;2023-02-15T00:42:37;4.47;;;1.60;;
51184;SDS011;37248;59.350;18.050;2023-02-15T00:45:03;10.77;;;1.70;;
51184;SDS011;37248;59.350;18.050;2023-02-15T00:47:28;5.60;;;1.87;;
51184;SDS011;37248;59.350;18.050;2023-02-15T00:49:53;3.20;;;1.73;;
51184;SDS011;37248;59.350;18.050;2023-02-15T00:52:18;4.03;;;1.73;;
51184;SDS011;37248;59.350;18.050;2023-02-15T00:54:44;4.13;;;1.60;;
51184;SDS011;37248;59.350;18.050;2023-02-15T00:57:09;3.87;;;1.87;;
51184;SDS011;37248;59.350;18.050;2023-02-15T00:59:34;4.03;;;1.57;;
51184;SDS011;37248;59.350;18.050;2023-02-15T01:01:59;3.03;;;1.50;;
51184;SDS011;37248;59.350;18.050;2023-02-15T01:04:25;4.40;;;1.37;;
51184;SDS011;37248;59.350;18.050;2023-02-15T01:06:50;3.57;;;1.50;;
51184;SDS011;37248;59.350;18.050;2023-02-15T01:09:15;3.73;;;1.50;;
51184;SDS011;37248;59.350;18.050;2023-02-15T01:11:40;4.03;;;1.60;;
51184;SDS011;37248;59.350;18.050;2023-02-15T01:14:06;4.57;;;1.43;;
51184;SDS011;37248;59.350;18.050;2023-02-15T01:16:31;2.57;;;1.30;;
51184;SDS011;37248;59.350;18.050;2023-02-15T01:18:56;3.67;;;1.50;;
51184;SDS011;37248;59.350;18.050;2023-02-15T01:21:22;3.20;;;1.73;;
51184;SDS011;37248;59.350;18.050;2023-02-15T01:23:48;4.57;;;1.77;;
51184;SDS011;37248;59.350;18.050;2023-02-15T01:26:13;3.53;;;1.17;;
51184;SDS011;37248;59.350;18.050;2023-02-15T01:28:39;3.17;;;1.20;;
51184;SDS011;37248;59.350;18.050;2023-02-15T01:31:08;5.93;;;1.50;;
51184;SDS011;37248;59.350;18.050;2023-02-15T01:33:34;4.50;;;1.40;;
51184;SDS011;37248;59.350;18.050;2023-02-15T01:35:59;3.33;;;1.30;;
51184;SDS011;37248;59.350;18.050;2023-02-15T01:38:25;3.13;;;1.43;;
51184;SDS011;37248;59.350;18.050;2023-02-15T01:40:51;4.80;;;1.57;;
51184;SDS011;37248;59.350;18.050;2023-02-15T01:43:17;3.33;;;1.25;;
51184;SDS011;37248;59.350;18.050;2023-02-15T01:45:43;4.10;;;1.67;;
51184;SDS011;37248;59.350;18.050;2023-02-15T01:48:19;5.03;;;1.38;;
51184;SDS011;37248;59.350;18.050;2023-02-15T01:50:57;2.72;;;1.40;;
51184;SDS011;37248;59.350;18.050;2023-02-15T01:58:28;6.25;;;1.48;;
51184;SDS011;37248;59.350;18.050;2023-02-15T02:00:54;3.27;;;1.57;;
51184;SDS011;37248;59.350;18.050;2023-02-15T02:03:24;3.17;;;1.33;;
51184;SDS011;37248;59.350;18.050;2023-02-15T02:05:52;3.53;;;1.27;;
51184;SDS011;37248;59.350;18.050;2023-02-15T02:08:17;2.97;;;1.27;;
51184;SDS011;37248;59.350;18.050;2023-02-15T02:10:42;3.93;;;1.40;;
51184;SDS011;37248;59.350;18.050;2023-02-15T02:13:08;5.40;;;1.40;;
51184;SDS011;37248;59.350;18.050;2023-02-15T02:15:41;3.50;;;1.33;;
51184;SDS011;37248;59.350;18.050;2023-02-15T02:23:19;2.17;;;1.15;;
51184;SDS011;37248;59.350;18.050;2023-02-15T02:31:30;2.67;;;1.40;;
51184;SDS011;37248;59.350;18.050;2023-02-15T02:43:47;2.67;;;0.90;;
51184;SDS011;37248;59.350;18.050;2023-02-15T02:48:39;2.90;;;1.00;;
51184;SDS011;37248;59.350;18.050;2023-02-15T02:51:04;2.73;;;1.10;;
51184;SDS011;37248;59.350;18.050;2023-02-15T02:53:30;3.70;;;1.10;;
51184;SDS011;37248;59.350;18.050;2023-02-15T02:55:57;4.07;;;1.33;;
51184;SDS011;37248;59.350;18.050;2023-02-15T02:58:26;4.20;;;1.03;;
51184;SDS011;37248;59.350;18.050;2023-02-15T03:00:55;3.42;;;1.08;;
51184;SDS011;37248;59.350;18.050;2023-02-15T03:05:47;5.73;;;1.50;;
51184;SDS011;37248;59.350;18.050;2023-02-15T03:08:15;5.40;;;1.30;;
51184;SDS011;37248;59.350;18.050;2023-02-15T03:10:46;10.48;;;1.20;;
51184;SDS011;37248;59.350;18.050;2023-02-15T03:13:12;2.13;;;1.10;;
51184;SDS011;37248;59.350;18.050;2023-02-15T03:15:38;4.67;;;1.10;;
51184;SDS011;37248;59.350;18.050;2023-02-15T03:18:23;2.25;;;1.02;;
51184;SDS011;37248;59.350;18.050;2023-02-15T03:20:50;3.55;;;0.95;;
51184;SDS011;37248;59.350;18.050;2023-02-15T03:23:18;2.25;;;1.23;;
51184;SDS011;37248;59.350;18.050;2023-02-15T03:25:50;5.05;;;1.10;;
51184;SDS011;37248;59.350;18.050;2023-02-15T03:28:25;4.07;;;1.02;;
51184;SDS011;37248;59.350;18.050;2023-02-15T03:30:52;2.85;;;1.00;;
51184;SDS011;37248;59.350;18.050;2023-02-15T03:33:18;4.30;;;1.23;;
51184;SDS011;37248;59.350;18.050;2023-02-15T03:35:54;6.65;;;1.10;;
51184;SDS011;37248;59.350;18.050;2023-02-15T03:38:29;2.40;;;0.90;;
51184;SDS011;37248;59.350;18.050;2023-02-15T03:40:58;3.38;;;1.08;;
51184;SDS011;37248;59.350;18.050;2023-02-15T03:43:41;1.77;;;0.90;;
51184;SDS011;37248;59.350;18.050;2023-02-15T03:46:21;1.70;;;1.00;;
51184;SDS011;37248;59.350;18.050;2023-02-15T03:49:08;3.83;;;1.00;;
51184;SDS011;37248;59.350;18.050;2023-02-15T03:51:36;3.10;;;0.93;;
51184;SDS011;37248;59.350;18.050;2023-02-15T03:56:28;2.83;;;1.10;;
51184;SDS011;37248;59.350;18.050;2023-02-15T03:58:53;3.40;;;0.70;;
51184;SDS011;37248;59.350;18.050;2023-02-15T04:01:38;3.25;;;1.00;;
51184;SDS011;37248;59.350;18.050;2023-02-15T04:04:35;1.48;;;0.85;;
51184;SDS011;37248;59.350;18.050;2023-02-15T04:07:01;2.40;;;0.93;;
51184;SDS011;37248;59.350;18.050;2023-02-15T04:09:27;1.90;;;0.90;;
51184;SDS011;37248;59.350;18.050;2023-02-15T04:12:11;3.00;;;1.30;;
51184;SDS011;37248;59.350;18.050;2023-02-15T04:14:36;3.30;;;1.00;;
51184;SDS011;37248;59.350;18.050;2023-02-15T04:17:20;4.50;;;1.13;;
51184;SDS011;37248;59.350;18.050;2023-02-15T04:19:45;1.50;;;0.80;;
51184;SDS011;37248;59.350;18.050;2023-02-15T04:22:29;1.70;;;0.80;;
51184;SDS011;37248;59.350;18.050;2023-02-15T04:25:12;2.28;;;1.17;;
51184;SDS011;37248;59.350;18.050;2023-02-15T04:27:39;2.22;;;1.08;;
51184;SDS011;37248;59.350;18.050;2023-02-15T04:30:04;2.88;;;0.80;;
51184;SDS011;37248;59.350;18.050;2023-02-15T04:32:30;2.90;;;1.20;;
51184;SDS011;37248;59.350;18.050;2023-02-15T04:34:55;1.20;;;0.80;;
51184;SDS011;37248;59.350;18.050;2023-02-15T04:37:20;1.90;;;0.90;;
51184;SDS011;37248;59.350;18.050;2023-02-15T04:39:45;1.23;;;0.90;;
51184;SDS011;37248;59.350;18.050;2023-02-15T04:42:11;3.33;;;0.97;;
51184;SDS011;37248;59.350;18.050;2023-02-15T04:44:36;1.90;;;1.20;;
51184;SDS011;37248;59.350;18.050;2023-02-15T04:47:01;2.13;;;1.10;;
51184;SDS011;37248;59.350;18.050;2023-02-15T04:49:26;2.07;;;1.13;;
51184;SDS011;37248;59.350;18.050;2023-02-15T04:51:52;1.67;;;1.10;;
51184;SDS011;37248;59.350;18.050;2023-02-15T04:54:17;4.63;;;1.02;;
51184;SDS011;37248;59.350;18.050;2023-02-15T04:56:42;1.90;;;1.00;;
51184;SDS011;37248;59.350;18.050;2023-02-15T04:59:11;2.20;;;1.02;;
51184;SDS011;37248;59.350;18.050;2023-02-15T05:01:36;2.33;;;1.00;;
51184;SDS011;37248;59.350;18.050;2023-02-15T05:04:02;3.10;;;1.30;;
51184;SDS011;37248;59.350;18.050;2023-02-15T05:06:27;7.80;;;1.50;;
51184;SDS011;37248;59.350;18.050;2023-02-15T05:08:53;5.88;;;1.30;;
51184;SDS011;37248;59.350;18.050;2023-02-15T05:11:18;3.27;;;1.20;;
51184;SDS011;37248;59.350;18.050;2023-02-15T05:13:43;3.33;;;1.40;;
51184;SDS011;37248;59.350;18.050;2023-02-15T05:16:08;1.90;;;1.10;;
51184;SDS011;37248;59.350;18.050;2023-02-15T05:18:34;2.67;;;1.00;;
51184;SDS011;37248;59.350;18.050;2023-02-15T05:20:59;3.60;;;1.10;;
51184;SDS011;37248;59.350;18.050;2023-02-15T05:23:24;3.53;;;1.40;;
51184;SDS011;37248;59.350;18.050;2023-02-15T05:25:50;3.70;;;1.50;;
51184;SDS011;37248;59.350;18.050;2023-02-15T05:28:34;5.97;;;1.55;;
51184;SDS011;37248;59.350;18.050;2023-02-15T05:33:28;5.05;;;1.20;;
51184;SDS011;37248;59.350;18.050;2023-02-15T05:35:53;2.55;;;1.30;;
51184;SDS011;37248;59.350;18.050;2023-02-15T05:38:18;4.87;;;1.70;;
51184;SDS011;37248;59.350;18.050;2023-02-15T05:40:44;1.80;;;1.17;;
51184;SDS011;37248;59.350;18.050;2023-02-15T05:43:09;3.47;;;1.20;;
51184;SDS011;37248;59.350;18.050;2023-02-15T05:45:34;5.07;;;1.20;;
51184;SDS011;37248;59.350;18.050;2023-02-15T05:47:59;4.23;;;1.30;;
51184;SDS011;37248;59.350;18.050;2023-02-15T05:50:25;2.30;;;1.20;;
51184;SDS011;37248;59.350;18.050;2023-02-15T05:52:50;5.27;;;1.47;;
51184;SDS011;37248;59.350;18.050;2023-02-15T05:55:16;7.77;;;1.53;;
51184;SDS011;37248;59.350;18.050;2023-02-15T05:57:41;5.67;;;1.23;;
51184;SDS011;37248;59.350;18.050;2023-02-15T06:00:07;6.72;;;1.80;;
51184;SDS011;37248;59.350;18.050;2023-02-15T06:02:34;6.93;;;1.75;;
51184;SDS011;37248;59.350;18.050;2023-02-15T06:04:59;6.50;;;1.52;;
51184;SDS011;37248;59.350;18.050;2023-02-15T06:07:24;9.00;;;1.80;;
51184;SDS011;37248;59.350;18.050;2023-02-15T06:09:50;5.35;;;1.70;;
51184;SDS011;37248;59.350;18.050;2023-02-15T06:12:15;11.87;;;1.63;;
51184;SDS011;37248;59.350;18.050;2023-02-15T06:14:40;12.20;;;1.70;;
51184;SDS011;37248;59.350;18.050;2023-02-15T06:17:05;13.07;;;1.87;;
51184;SDS011;37248;59.350;18.050;2023-02-15T06:19:31;6.85;;;2.08;;
51184;SDS011;37248;59.350;18.050;2023-02-15T06:21:57;11.25;;;1.90;;
51184;SDS011;37248;59.350;18.050;2023-02-15T06:24:22;18.30;;;1.93;;
51184;SDS011;37248;59.350;18.050;2023-02-15T06:26:47;20.00;;;2.10;;
51184;SDS011;37248;59.350;18.050;2023-02-15T06:29:13;18.15;;;2.53;;
51184;SDS011;37248;59.350;18.050;2023-02-15T06:31:38;24.10;;;2.47;;
51184;SDS011;37248;59.350;18.050;2023-02-15T06:34:03;25.40;;;2.40;;
51184;SDS011;37248;59.350;18.050;2023-02-15T06:36:29;25.00;;;2.37;;
51184;SDS011;37248;59.350;18.050;2023-02-15T06:38:55;27.93;;;3.30;;
51184;SDS011;37248;59.350;18.050;2023-02-15T06:41:20;31.87;;;2.87;;
51184;SDS011;37248;59.350;18.050;2023-02-15T06:43:46;23.87;;;2.87;;
51184;SDS011;37248;59.350;18.050;2023-02-15T06:46:11;17.20;;;2.45;;
51184;SDS011;37248;59.350;18.050;2023-02-15T06:48:36;22.30;;;2.77;;
51184;SDS011;37248;59.350;18.050;2023-02-15T06:51:02;20.10;;;2.40;;
51184;SDS011;37248;59.350;18.050;2023-02-15T06:53:27;13.67;;;2.43;;
51184;SDS011;37248;59.350;18.050;2023-02-15T06:55:52;14.90;;;2.40;;
51184;SDS011;37248;59.350;18.050;2023-02-15T06:58:17;25.30;;;2.90;;
51184;SDS011;37248;59.350;18.050;2023-02-15T07:00:43;12.40;;;2.43;;
51184;SDS011;37248;59.350;18.050;2023-02-15T07:03:08;12.60;;;2.13;;
51184;SDS011;37248;59.350;18.050;2023-02-15T07:05:34;11.23;;;2.60;;
51184;SDS011;37248;59.350;18.050;2023-02-15T07:07:59;12.70;;;2.40;;
51184;SDS011;37248;59.350;18.050;2023-02-15T07:10:25;13.18;;;2.47;;
51184;SDS011;37248;59.350;18.050;2023-02-15T07:12:50;9.27;;;2.20;;
51184;SDS011;37248;59.350;18.050;2023-02-15T07:15:17;9.07;;;2.17;;
51184;SDS011;37248;59.350;18.050;2023-02-15T07:17:43;8.35;;;2.33;;
51184;SDS011;37248;59.350;18.050;2023-02-15T07:20:15;10.02;;;2.00;;
51184;SDS011;37248;59.350;18.050;2023-02-15T07:22:41;11.38;;;2.42;;
51184;SDS011;37248;59.350;18.050;2023-02-15T07:25:08;14.90;;;2.40;;
51184;SDS011;37248;59.350;18.050;2023-02-15T07:27:34;6.15;;;2.08;;
51184;SDS011;37248;59.350;18.050;2023-02-15T07:29:59;8.32;;;2.05;;
51184;SDS011;37248;59.350;18.050;2023-02-15T07:32:27;14.60;;;2.47;;
51184;SDS011;37248;59.350;18.050;2023-02-15T07:34:52;5.82;;;2.15;;
51184;SDS011;37248;59.350;18.050;2023-02-15T07:37:17;8.43;;;2.43;;
51184;SDS011;37248;59.350;18.050;2023-02-15T07:39:43;5.87;;;2.17;;
51184;SDS011;37248;59.350;18.050;2023-02-15T07:42:08;6.20;;;1.87;;
51184;SDS011;37248;59.350;18.050;2023-02-15T07:44:33;5.20;;;1.87;;
51184;SDS011;37248;59.350;18.050;2023-02-15T07:46:58;5.57;;;2.20;;
51184;SDS011;37248;59.350;18.050;2023-02-15T07:49:24;9.57;;;2.13;;
51184;SDS011;37248;59.350;18.050;2023-02-15T07:51:49;5.70;;;1.80;;
51184;SDS011;37248;59.350;18.050;2023-02-15T07:54:14;6.07;;;2.07;;
51184;SDS011;37248;59.350;18.050;2023-02-15T07:56:40;7.10;;;2.03;;
51184;SDS011;37248;59.350;18.050;2023-02-15T07:59:05;7.73;;;1.90;;
51184;SDS011;37248;59.350;18.050;2023-02-15T08:01:31;7.97;;;1.83;;
51184;SDS011;37248;59.350;18.050;2023-02-15T08:03:57;6.65;;;1.80;;
51184;SDS011;37248;59.350;18.050;2023-02-15T08:06:23;9.43;;;1.73;;
51184;SDS011;37248;59.350;18.050;2023-02-15T08:08:49;7.28;;;2.05;;
51184;SDS011;37248;59.350;18.050;2023-02-15T08:18:49;6.87;;;1.53;;
51184;SDS011;37248;59.350;18.050;2023-02-15T08:21:15;5.80;;;1.57;;
51184;SDS011;37248;59.350;18.050;2023-02-15T08:23:40;6.20;;;1.67;;
51184;SDS011;37248;59.350;18.050;2023-02-15T08:26:05;4.70;;;1.80;;
51184;SDS011;37248;59.350;18.050;2023-02-15T08:28:31;4.73;;;1.70;;
51184;SDS011;37248;59.350;18.050;2023-02-15T08:31:03;3.43;;;1.77;;
51184;SDS011;37248;59.350;18.050;2023-02-15T08:33:28;6.43;;;1.80;;
51184;SDS011;37248;59.350;18.050;2023-02-15T08:35:54;5.28;;;1.70;;
51184;SDS011;37248;59.350;18.050;2023-02-15T08:38:19;5.73;;;1.80;;
51184;SDS011;37248;59.350;18.050;2023-02-15T08:40:45;5.60;;;1.50;;
51184;SDS011;37248;59.350;18.050;2023-02-15T08:43:10;6.00;;;1.67;;
51184;SDS011;37248;59.350;18.050;2023-02-15T08:45:36;7.97;;;1.90;;
51184;SDS011;37248;59.350;18.050;2023-02-15T08:48:01;4.80;;;1.60;;
51184;SDS011;37248;59.350;18.050;2023-02-15T08:50:26;4.30;;;1.40;;
51184;SDS011;37248;59.350;18.050;2023-02-15T08:52:51;3.80;;;1.40;;
51184;SDS011;37248;59.350;18.050;2023-02-15T08:55:17;6.50;;;1.90;;
51184;SDS011;37248;59.350;18.050;2023-02-15T08:57:42;4.43;;;1.73;;
51184;SDS011;37248;59.350;18.050;2023-02-15T09:00:10;6.30;;;1.90;;
51184;SDS011;37248;59.350;18.050;2023-02-15T09:02:36;3.90;;;1.63;;
51184;SDS011;37248;59.350;18.050;2023-02-15T09:05:02;6.28;;;1.60;;
51184;SDS011;37248;59.350;18.050;2023-02-15T09:07:28;7.03;;;1.60;;
51184;SDS011;37248;59.350;18.050;2023-02-15T09:09:53;7.40;;;1.67;;
51184;SDS011;37248;59.350;18.050;2023-02-15T09:12:19;6.60;;;1.80;;
51184;SDS011;37248;59.350;18.050;2023-02-15T09:14:44;4.47;;;1.70;;
51184;SDS011;37248;59.350;18.050;2023-02-15T09:17:09;8.07;;;2.17;;
51184;SDS011;37248;59.350;18.050;2023-02-15T09:19:34;10.37;;;1.90;;
51184;SDS011;37248;59.350;18.050;2023-02-15T09:22:00;15.20;;;2.33;;
51184;SDS011;37248;59.350;18.050;2023-02-15T09:24:25;9.10;;;1.90;;
51184;SDS011;37248;59.350;18.050;2023-02-15T09:26:50;13.07;;;2.13;;
51184;SDS011;37248;59.350;18.050;2023-02-15T09:29:16;15.30;;;2.73;;
51184;SDS011;37248;59.350;18.050;2023-02-15T09:31:43;23.67;;;2.58;;
51184;SDS011;37248;59.350;18.050;2023-02-15T09:34:10;23.17;;;2.60;;
51184;SDS011;37248;59.350;18.050;2023-02-15T09:36:36;20.88;;;2.20;;
51184;SDS011;37248;59.350;18.050;2023-02-15T09:39:09;15.35;;;2.20;;
51184;SDS011;37248;59.350;18.050;2023-02-15T09:54:41;8.53;;;2.13;;
51184;SDS011;37248;59.350;18.050;2023-02-15T10:02:43;7.15;;;2.20;;
51184;SDS011;37248;59.350;18.050;2023-02-15T10:12:54;7.95;;;2.20;;
51184;SDS011;37248;59.350;18.050;2023-02-15T10:15:29;10.43;;;2.17;;
51184;SDS011;37248;59.350;18.050;2023-02-15T10:22:59;6.03;;;1.85;;
51184;SDS011;37248;59.350;18.050;2023-02-15T10:27:55;10.23;;;2.50;;
51184;SDS011;37248;59.350;18.050;2023-02-15T10:43:14;7.43;;;1.87;;
51184;SDS011;37248;59.350;18.050;2023-02-15T11:00:47;3.27;;;1.70;;
51184;SDS011;37248;59.350;18.050;2023-02-15T11:08:23;3.17;;;1.80;;
51184;SDS011;37248;59.350;18.050;2023-02-15T11:10:57;5.28;;;1.67;;
51184;SDS011;37248;59.350;18.050;2023-02-15T11:13:24;3.50;;;1.73;;
51184;SDS011;37248;59.350;18.050;2023-02-15T11:15:53;3.90;;;1.77;;
51184;SDS011;37248;59.350;18.050;2023-02-15T11:18:34;6.18;;;1.90;;
51184;SDS011;37248;59.350;18.050;2023-02-15T11:21:01;5.25;;;1.70;;
51184;SDS011;37248;59.350;18.050;2023-02-15T11:23:28;3.40;;;1.60;;
51184;SDS011;37248;59.350;18.050;2023-02-15T11:26:03;5.40;;;1.57;;
51184;SDS011;37248;59.350;18.050;2023-02-15T11:30:55;3.40;;;1.60;;
51184;SDS011;37248;59.350;18.050;2023-02-15T11:33:23;3.10;;;1.80;;
51184;SDS011;37248;59.350;18.050;2023-02-15T11:35:54;3.05;;;1.63;;
51184;SDS011;37248;59.350;18.050;2023-02-15T11:38:21;3.58;;;1.65;;
51184;SDS011;37248;59.350;18.050;2023-02-15T11:45:48;3.80;;;1.70;;
51184;SDS011;37248;59.350;18.050;2023-02-15T11:48:14;2.83;;;1.60;;
51184;SDS011;37248;59.350;18.050;2023-02-15T11:50:40;3.72;;;1.60;;
51184;SDS011;37248;59.350;18.050;2023-02-15T11:53:13;2.73;;;1.50;;
51184;SDS011;37248;59.350;18.050;2023-02-15T11:55:39;4.15;;;1.60;;
51184;SDS011;37248;59.350;18.050;2023-02-15T12:00:54;2.97;;;1.63;;
51184;SDS011;37248;59.350;18.050;2023-02-15T12:03:22;3.50;;;1.70;;
51184;SDS011;37248;59.350;18.050;2023-02-15T12:05:53;2.10;;;1.38;;
51184;SDS011;37248;59.350;18.050;2023-02-15T12:08:21;2.60;;;1.70;;
51184;SDS011;37248;59.350;18.050;2023-02-15T12:13:18;2.20;;;1.42;;
51184;SDS011;37248;59.350;18.050;2023-02-15T12:15:45;2.30;;;1.40;;
51184;SDS011;37248;59.350;18.050;2023-02-15T12:20:57;2.28;;;1.42;;
51184;SDS011;37248;59.350;18.050;2023-02-15T12:23:23;3.28;;;1.65;;
51184;SDS011;37248;59.350;18.050;2023-02-15T12:25:50;3.60;;;1.60;;
51184;SDS011;37248;59.350;18.050;2023-02-15T12:28:36;2.50;;;1.47;;
51184;SDS011;37248;59.350;18.050;2023-02-15T12:31:03;3.72;;;1.60;;
51184;SDS011;37248;59.350;18.050;2023-02-15T12:36:09;1.90;;;1.23;;
51184;SDS011;37248;59.350;18.050;2023-02-15T12:38:36;1.90;;;1.37;;
51184;SDS011;37248;59.350;18.050;2023-02-15T12:41:10;3.13;;;1.57;;
51184;SDS011;37248;59.350;18.050;2023-02-15T12:43:46;2.22;;;1.40;;
51184;SDS011;37248;59.350;18.050;2023-02-15T12:46:22;2.03;;;1.33;;
51184;SDS011;37248;59.350;18.050;2023-02-15T12:49:04;2.28;;;1.60;;
51184;SDS011;37248;59.350;18.050;2023-02-15T12:51:31;2.50;;;1.40;;
51184;SDS011;37248;59.350;18.050;2023-02-15T12:54:16;1.60;;;1.38;;
51184;SDS011;37248;59.350;18.050;2023-02-15T12:56:41;4.00;;;1.60;;
51184;SDS011;37248;59.350;18.050;2023-02-15T12:59:12;2.17;;;1.33;;
51184;SDS011;37248;59.350;18.050;2023-02-15T13:01:40;2.13;;;1.50;;
51184;SDS011;37248;59.350;18.050;2023-02-15T13:04:14;2.67;;;1.60;;
51184;SDS011;37248;59.350;18.050;2023-02-15T13:06:46;2.55;;;1.38;;
51184;SDS011;37248;59.350;18.050;2023-02-15T13:09:19;2.50;;;1.50;;
51184;SDS011;37248;59.350;18.050;2023-02-15T13:11:45;2.95;;;1.52;;
51184;SDS011;37248;59.350;18.050;2023-02-15T13:14:30;2.47;;;1.60;;
51184;SDS011;37248;59.350;18.050;2023-02-15T13:16:57;2.45;;;1.50;;
51184;SDS011;37248;59.350;18.050;2023-02-15T13:21:49;1.90;;;1.33;;
51184;SDS011;37248;59.350;18.050;2023-02-15T13:24:22;2.08;;;1.33;;
51184;SDS011;37248;59.350;18.050;2023-02-15T13:26:49;2.00;;;1.40;;
51184;SDS011;37248;59.350;18.050;2023-02-15T13:29:22;2.20;;;1.30;;
51184;SDS011;37248;59.350;18.050;2023-02-15T13:31:49;3.30;;;1.60;;
51184;SDS011;37248;59.350;18.050;2023-02-15T13:39:47;2.53;;;1.50;;
51184;SDS011;37248;59.350;18.050;2023-02-15T13:50:16;2.50;;;1.38;;
51184;SDS011;37248;59.350;18.050;2023-02-15T13:52:47;3.17;;;1.60;;
51184;SDS011;37248;59.350;18.050;2023-02-15T14:26:45;3.07;;;1.30;;
51184;SDS011;37248;59.350;18.050;2023-02-15T14:31:06;4.77;;;1.60;;
51184;SDS011;37248;59.350;18.050;2023-02-15T14:33:37;2.97;;;1.60;;
51184;SDS011;37248;59.350;18.050;2023-02-15T14:36:06;6.10;;;1.90;;
51184;SDS011;37248;59.350;18.050;2023-02-15T14:38:43;3.38;;;1.48;;
51184;SDS011;37248;59.350;18.050;2023-02-15T14:48:39;3.58;;;1.60;;
51184;SDS011;37248;59.350;18.050;2023-02-15T14:51:07;6.03;;;1.42;;
51184;SDS011;37248;59.350;18.050;2023-02-15T14:53:34;5.90;;;1.50;;
51184;SDS011;37248;59.350;18.050;2023-02-15T14:56:13;3.50;;;1.48;;
51184;SDS011;37248;59.350;18.050;2023-02-15T14:59:21;4.65;;;1.48;;
51184;SDS011;37248;59.350;18.050;2023-02-15T15:01:28;3.85;;;1.33;;
51184;SDS011;37248;59.350;18.050;2023-02-15T15:03:55;6.10;;;1.73;;
51184;SDS011;37248;59.350;18.050;2023-02-15T15:08:50;2.47;;;1.20;;
51184;SDS011;37248;59.350;18.050;2023-02-15T15:13:55;11.90;;;1.58;;
51184;SDS011;37248;59.350;18.050;2023-02-15T15:19:08;6.63;;;1.50;;
51184;SDS011;37248;59.350;18.050;2023-02-15T15:29:42;5.13;;;1.40;;
51184;SDS011;37248;59.350;18.050;2023-02-15T15:32:08;3.87;;;1.40;;
51184;SDS011;37248;59.350;18.050;2023-02-15T15:34:45;4.03;;;1.33;;
51184;SDS011;37248;59.350;18.050;2023-02-15T15:42:13;2.08;;;1.30;;
51184;SDS011;37248;59.350;18.050;2023-02-15T15:44:58;3.80;;;1.40;;
51184;SDS011;37248;59.350;18.050;2023-02-15T15:49:59;4.32;;;1.48;;
51184;SDS011;37248;59.350;18.050;2023-02-15T15:52:25;4.68;;;1.40;;
51184;SDS011;37248;59.350;18.050;2023-02-15T15:54:52;3.85;;;1.48;;
51184;SDS011;37248;59.350;18.050;2023-02-15T15:57:33;2.43;;;1.23;;
51184;SDS011;37248;59.350;18.050;2023-02-15T15:59:59;2.28;;;1.38;;
51184;SDS011;37248;59.350;18.050;2023-02-15T16:02:25;2.17;;;1.13;;
51184;SDS011;37248;59.350;18.050;2023-02-15T16:04:50;4.90;;;1.30;;
51184;SDS011;37248;59.350;18.050;2023-02-15T16:09:41;3.90;;;1.30;;
51184;SDS011;37248;59.350;18.050;2023-02-15T16:12:17;3.42;;;1.48;;
51184;SDS011;37248;59.350;18.050;2023-02-15T16:14:44;11.00;;;1.70;;
51184;SDS011;37248;59.350;18.050;2023-02-15T16:17:17;41.75;;;4.28;;
51184;SDS011;37248;59.350;18.050;2023-02-15T16:19:44;46.50;;;3.60;;
51184;SDS011;37248;59.350;18.050;2023-02-15T16:22:18;46.50;;;3.57;;
51184;SDS011;37248;59.350;18.050;2023-02-15T16:29:55;21.83;;;2.58;;
51184;SDS011;37248;59.350;18.050;2023-02-15T16:32:22;29.40;;;3.17;;
51184;SDS011;37248;59.350;18.050;2023-02-15T16:34:55;16.10;;;2.38;;
51184;SDS011;37248;59.350;18.050;2023-02-15T16:37:22;19.42;;;2.45;;
51184;SDS011;37248;59.350;18.050;2023-02-15T16:39:49;19.73;;;2.30;;
51184;SDS011;37248;59.350;18.050;2023-02-15T16:42:14;15.82;;;2.10;;
51184;SDS011;37248;59.350;18.050;2023-02-15T16:44:40;22.07;;;2.90;;
51184;SDS011;37248;59.350;18.050;2023-02-15T16:47:08;12.80;;;2.07;;
51184;SDS011;37248;59.350;18.050;2023-02-15T16:49:37;14.32;;;2.22;;
51184;SDS011;37248;59.350;18.050;2023-02-15T16:52:05;21.13;;;2.30;;
51184;SDS011;37248;59.350;18.050;2023-02-15T16:54:32;9.27;;;2.85;;
51184;SDS011;37248;59.350;18.050;2023-02-15T16:56:58;15.17;;;2.10;;
51184;SDS011;37248;59.350;18.050;2023-02-15T17:02:12;11.18;;;1.95;;
51184;SDS011;37248;59.350;18.050;2023-02-15T17:04:37;11.90;;;1.80;;
51184;SDS011;37248;59.350;18.050;2023-02-15T17:07:17;7.30;;;1.88;;
51184;SDS011;37248;59.350;18.050;2023-02-15T17:09:49;10.75;;;1.73;;
51184;SDS011;37248;59.350;18.050;2023-02-15T17:12:36;9.98;;;2.05;;
51184;SDS011;37248;59.350;18.050;2023-02-15T17:15:00;8.77;;;2.05;;
51184;SDS011;37248;59.350;18.050;2023-02-15T17:17:25;8.40;;;1.83;;
51184;SDS011;37248;59.350;18.050;2023-02-15T17:19:51;10.95;;;1.85;;
51184;SDS011;37248;59.350;18.050;2023-02-15T17:22:24;14.10;;;2.05;;
51184;SDS011;37248;59.350;18.050;2023-02-15T17:24:57;19.83;;;2.42;;
51184;SDS011;37248;59.350;18.050;2023-02-15T17:27:26;31.15;;;3.08;;
51184;SDS011;37248;59.350;18.050;2023-02-15T17:29:56;21.00;;;3.05;;
51184;SDS011;37248;59.350;18.050;2023-02-15T17:32:23;22.33;;;3.03;;
51184;SDS011;37248;59.350;18.050;2023-02-15T17:34:50;24.35;;;3.40;;
51184;SDS011;37248;59.350;18.050;2023-02-15T17:39:50;27.13;;;2.78;;
51184;SDS011;37248;59.350;18.050;2023-02-15T17:42:15;15.53;;;2.67;;
51184;SDS011;37248;59.350;18.050;2023-02-15T17:44:40;20.42;;;2.92;;
51184;SDS011;37248;59.350;18.050;2023-02-15T17:47:05;12.67;;;2.53;;
51184;SDS011;37248;59.350;18.050;2023-02-15T17:49:31;14.77;;;2.83;;
51184;SDS011;37248;59.350;18.050;2023-02-15T17:51:59;14.27;;;2.60;;
51184;SDS011;37248;59.350;18.050;2023-02-15T17:54:24;12.47;;;2.13;;
51184;SDS011;37248;59.350;18.050;2023-02-15T17:57:12;15.17;;;2.87;;
51184;SDS011;37248;59.350;18.050;2023-02-15T17:59:37;9.18;;;2.17;;
51184;SDS011;37248;59.350;18.050;2023-02-15T18:02:21;12.07;;;2.33;;
51184;SDS011;37248;59.350;18.050;2023-02-15T18:05:07;15.40;;;2.78;;
51184;SDS011;37248;59.350;18.050;2023-02-15T18:07:54;13.10;;;2.45;;
51184;SDS011;37248;59.350;18.050;2023-02-15T18:10:38;17.63;;;2.80;;
51184;SDS011;37248;59.350;18.050;2023-02-15T18:13:22;12.48;;;2.28;;
51184;SDS011;37248;59.350;18.050;2023-02-15T18:15:48;11.83;;;2.20;;
51184;SDS011;37248;59.350;18.050;2023-02-15T18:18:13;7.50;;;2.35;;